Radar

Vær
Nettlenker
Antall som skal vises: 
1 Internet Pilot Planning Centre
2 Kjevik time for time
3 Værsiden
4 Weather Underground Norway
5 National Weather Service
6 Skogbrannfarevarsel
 
METAR
2017/11/21 20:50 ENCN 212050Z 04015KT 3000 -SN FEW004 BKN010 M00/M01 Q1007
TAF
2017/11/21 18:39 TAF TAF ENCN 211700Z 2118/2122 04012KT 7000 -SNRA SCT005 BKN010 TEMPO 2118/2122 06015G25KT 2000 SN VV004
LN-KFK
Til service
VFR dag
07:41 - 16:46
Brannvakt
Inaktiv
Banner
Banner
Banner
Banner
Banner